Big Bear Station Historical Data
Daily Summary for October 30, 2017 Units:  English    Metric   Both
« Previous Day
Next Day »
Daily Weekly Monthly Yearly Custom
  High: Low: Average:
Temperature: 62.4 °F 34.3 °F 46.8 °F
Dew Point: 38.4 °F 23.8 °F 29.5 °F
Humidity: 80 % 31 % 53 %
Wind Speed: 6.8 mph 0.0 mph 1 mph
Wind Gust: -999.0 mph - -
Wind:- - West
Pressure: 23.43 in 23.35 in -
Precipitation: 0.00 in    
Historical Graphs
 
 
Tabular Data for October 30, 2017
Time Temperature Dew Point Pressure Wind Wind Speed Wind Gust Humidity Rainfall Rate (Hourly)
00:13 43.3 °F 30.8 °F 23.43 in Calm   -999.0 mph 61 % 0 in
00:28 43.0 °F 30.9 °F 23.43 in Calm   -999.0 mph 62 % 0 in
00:43 42.8 °F 30.3 °F 23.43 in Calm   -999.0 mph 61 % 0 in
00:58 41.9 °F 30.6 °F 23.43 in Calm   -999.0 mph 64 % 0 in
01:13 41.9 °F 31.0 °F 23.43 in South 2.2 mph -999.0 mph 65 % 0 in
01:29 41.2 °F 29.9 °F 23.43 in Calm   -999.0 mph 64 % 0 in
01:44 40.5 °F 27.7 °F 23.42 in Calm   -999.0 mph 60 % 0 in
01:59 40.1 °F 27.3 °F 23.42 in Calm   -999.0 mph 60 % 0 in
02:14 39.9 °F 27.1 °F 23.42 in Calm   -999.0 mph 60 % 0 in
02:29 39.4 °F 27.1 °F 23.42 in Calm   -999.0 mph 61 % 0 in
02:45 39.0 °F 27.9 °F 23.41 in Calm   -999.0 mph 64 % 0 in
03:00 38.7 °F 27.6 °F 23.41 in Calm   -999.0 mph 64 % 0 in
03:15 38.1 °F 27.7 °F 23.40 in Calm   -999.0 mph 66 % 0 in
03:30 38.3 °F 30.4 °F 23.40 in Calm   -999.0 mph 73 % 0 in
03:45 37.6 °F 30.4 °F 23.40 in Calm   -999.0 mph 75 % 0 in
04:01 37.8 °F 30.6 °F 23.40 in Calm   -999.0 mph 75 % 0 in
04:16 37.2 °F 30.0 °F 23.39 in Calm   -999.0 mph 75 % 0 in
04:31 36.9 °F 26.2 °F 23.40 in Calm   -999.0 mph 65 % 0 in
04:46 36.3 °F 26.4 °F 23.40 in Calm   -999.0 mph 67 % 0 in
05:02 36.1 °F 26.2 °F 23.40 in Calm   -999.0 mph 67 % 0 in
05:17 36.3 °F 26.7 °F 23.40 in Calm   -999.0 mph 68 % 0 in
05:32 35.6 °F 25.7 °F 23.40 in Calm   -999.0 mph 67 % 0 in
05:47 35.6 °F 24.2 °F 23.40 in Calm   -999.0 mph 63 % 0 in
06:02 35.2 °F 27.1 °F 23.40 in Calm   -999.0 mph 72 % 0 in
06:18 35.1 °F 27.0 °F 23.40 in Calm   -999.0 mph 72 % 0 in
06:33 35.2 °F 27.4 °F 23.40 in Calm   -999.0 mph 73 % 0 in
06:48 35.1 °F 27.0 °F 23.40 in Calm   -999.0 mph 72 % 0 in
07:03 34.7 °F 27.9 °F 23.40 in Calm   -999.0 mph 76 % 0 in
07:18 34.3 °F 28.2 °F 23.40 in Calm   -999.0 mph 78 % 0 in
07:34 34.3 °F 27.2 °F 23.40 in Calm   -999.0 mph 75 % 0 in
07:49 35.1 °F 28.3 °F 23.40 in Calm   -999.0 mph 76 % 0 in
08:04 35.2 °F 28.7 °F 23.40 in Calm   -999.0 mph 77 % 0 in
08:19 34.9 °F 29.4 °F 23.41 in Calm   -999.0 mph 80 % 0 in
08:34 36.9 °F 29.4 °F 23.41 in Calm   -999.0 mph 74 % 0 in
09:05 39.0 °F 31.4 °F 23.41 in Calm   -999.0 mph 74 % 0 in
09:21 39.9 °F 30.9 °F 23.41 in Calm   -999.0 mph 70 % 0 in
09:36 42.6 °F 31.7 °F 23.41 in Calm   -999.0 mph 65 % 0 in
09:51 44.6 °F 32.0 °F 23.40 in Calm   -999.0 mph 61 % 0 in
10:06 47.7 °F 30.4 °F 23.40 in Calm   -999.0 mph 51 % 0 in
10:21 50.2 °F 33.2 °F 23.40 in Calm   -999.0 mph 52 % 0 in
10:37 54.5 °F 34.1 °F 23.40 in NNW 1.1 mph -999.0 mph 46 % 0 in
10:52 58.5 °F 34.3 °F 23.40 in Calm   -999.0 mph 40 % 0 in
11:07 61.3 °F 31.9 °F 23.39 in West 1.1 mph -999.0 mph 33 % 0 in
11:22 60.3 °F 30.3 °F 23.39 in NW 4.2 mph -999.0 mph 32 % 0 in
11:38 60.8 °F 30.0 °F 23.39 in NW 4.2 mph -999.0 mph 31 % 0 in
12:08 61.3 °F 31.9 °F 23.39 in South 1.7 mph -999.0 mph 33 % 0 in
12:23 62.1 °F 31.1 °F 23.38 in NW 5.3 mph -999.0 mph 31 % 0 in
12:38 62.4 °F 34.4 °F 23.38 in NW 5.3 mph -999.0 mph 35 % 0 in
13:09 62.4 °F 35.1 °F 23.36 in West 6.8 mph -999.0 mph 36 % 0 in
13:24 62.4 °F 38.4 °F 23.36 in ENE 3.2 mph -999.0 mph 41 % 0 in
13:39 61.2 °F 34.7 °F 23.36 in NW 5.8 mph -999.0 mph 37 % 0 in
13:55 60.6 °F 35.5 °F 23.36 in NW 4.2 mph -999.0 mph 39 % 0 in
14:10 60.8 °F 35.0 °F 23.36 in WNW 5.3 mph -999.0 mph 38 % 0 in
14:25 60.4 °F 37.2 °F 23.36 in NNW 2.7 mph -999.0 mph 42 % 0 in
14:41 61.7 °F 33.0 °F 23.35 in ESE 1.7 mph -999.0 mph 34 % 0 in
15:11 60.6 °F 34.2 °F 23.35 in WNW 5.3 mph -999.0 mph 37 % 0 in
15:26 59.9 °F 34.9 °F 23.35 in West 2.2 mph -999.0 mph 39 % 0 in
15:41 59.2 °F 30.8 °F 23.35 in NW 2.2 mph -999.0 mph 34 % 0 in
15:57 59.5 °F 31.8 °F 23.36 in NNW 2.7 mph -999.0 mph 35 % 0 in
16:12 58.3 °F 33.4 °F 23.36 in NNW 3.7 mph -999.0 mph 39 % 0 in
16:27 57.7 °F 31.6 °F 23.36 in NW 2.7 mph -999.0 mph 37 % 0 in
16:42 57.6 °F 32.2 °F 23.35 in NW 2.7 mph -999.0 mph 38 % 0 in
16:58 57.7 °F 30.9 °F 23.35 in West 3.7 mph -999.0 mph 36 % 0 in
17:13 57.2 °F 28.3 °F 23.35 in West 1.7 mph -999.0 mph 33 % 0 in
17:28 56.5 °F 29.9 °F 23.35 in Calm   -999.0 mph 36 % 0 in
17:43 55.9 °F 30.0 °F 23.35 in NNE 1.7 mph -999.0 mph 37 % 0 in
17:59 54.7 °F 28.9 °F 23.35 in Calm   -999.0 mph 37 % 0 in
18:14 53.4 °F 27.8 °F 23.35 in Calm   -999.0 mph 37 % 0 in
18:29 52.7 °F 27.1 °F 23.36 in Calm   -999.0 mph 37 % 0 in
18:44 51.8 °F 26.3 °F 23.36 in Calm   -999.0 mph 37 % 0 in
19:00 51.3 °F 25.2 °F 23.36 in Calm   -999.0 mph 36 % 0 in
19:15 50.0 °F 25.4 °F 23.36 in SE 1.7 mph -999.0 mph 38 % 0 in
19:30 48.7 °F 24.8 °F 23.36 in Calm   -999.0 mph 39 % 0 in
19:45 48.0 °F 24.2 °F 23.36 in Calm   -999.0 mph 39 % 0 in
20:00 46.9 °F 23.8 °F 23.36 in Calm   -999.0 mph 40 % 0 in
20:31 46.2 °F 27.6 °F 23.36 in Calm   -999.0 mph 48 % 0 in
20:46 45.7 °F 27.6 °F 23.36 in Calm   -999.0 mph 49 % 0 in
21:01 45.1 °F 27.6 °F 23.36 in Calm   -999.0 mph 50 % 0 in
21:16 44.6 °F 24.6 °F 23.36 in Calm   -999.0 mph 45 % 0 in
21:32 44.2 °F 24.7 °F 23.37 in Calm   -999.0 mph 46 % 0 in
21:47 44.1 °F 26.6 °F 23.37 in Calm   -999.0 mph 50 % 0 in
22:03 43.3 °F 26.8 °F 23.37 in Calm   -999.0 mph 52 % 0 in
22:18 43.3 °F 27.8 °F 23.37 in Calm   -999.0 mph 54 % 0 in
22:33 43.2 °F 27.7 °F 23.37 in Calm   -999.0 mph 54 % 0 in
22:48 43.0 °F 28.8 °F 23.37 in Calm   -999.0 mph 57 % 0 in
23:03 42.6 °F 28.4 °F 23.37 in Calm   -999.0 mph 57 % 0 in
23:19 42.4 °F 30.3 °F 23.37 in Calm   -999.0 mph 62 % 0 in
23:34 42.1 °F 30.8 °F 23.37 in Calm   -999.0 mph 64 % 0 in
23:49 42.1 °F 30.4 °F 23.37 in Calm   -999.0 mph 63 % 0 in
Big Bear CA Weather
Compliments of Weather Underground - 1.5 mb